Friday, August 1, 2014, 6:27 PM EDT

KSBY, Salisbury-wicomico Cty Reg

Location: Salisbury, MD, United States Lat: 38.333
Local Time: 6:27 PM EDT (22:27 GMT) Lon: -75.5
Time Zone: US/Eastern Elev: 52 ft

Show me the last for .
Show Decoded

2014-08-01 17:54 METAR KSBY 012154Z 06004KT 10SM -RA FEW060 SCT100 BKN120 24/21 A3016 RMK AO2
                 RAE2059B25 SLP214 P0000 T02440206 =
2014-08-01 16:54 METAR KSBY 012054Z 10005KT 10SM -RA OVC095 24/20 A3018 RMK AO2 RAE04B22 SLP221
                 P0000 60000 T02440200 58007 =
2014-08-01 15:54 METAR KSBY 011954Z 14004KT 10SM -RA FEW050 BKN095 OVC110 25/20 A3020 RMK AO2
                 RAB09 SLP228 P0000 T02500200 =
2014-08-01 14:54 METAR KSBY 011854Z 12006KT 10SM FEW110 26/19 A3019 =
2014-08-01 13:54 METAR KSBY 011754Z 11007KT 10SM SCT047 SCT060 BKN095 26/19 A3020 RMK AO2
                 RAB19E31 SLP229 P0000 60000 T02610194 10272 20228 58000 =
2014-08-01 12:54 METAR KSBY 011654Z 00000KT 10SM FEW095 SCT110 26/20 A3020 RMK AO2 RAE00 SLP230
                 P0000 T02610200 =
2014-08-01 11:54 METAR KSBY 011554Z VRB03KT 5SM -RA BKN041 BKN050 OVC070 26/21 A3021 RMK AO2
                 RAB33 SLP231 P0000 T02610206 =
2014-08-01 10:54 METAR KSBY 011454Z 00000KT 10SM FEW080 BKN120 26/19 A3020 RMK AO2 SLP229
                 T02610189 53008 =
2014-08-01 09:54 METAR KSBY 011354Z 34003KT 10SM CLR 27/19 A3018 =
2014-08-01 08:54 METAR KSBY 011254Z 00000KT 10SM CLR 25/19 A3018 RMK AO2 SLP223 T02500194 =
2014-08-01 07:54 METAR KSBY 011154Z 00000KT 8SM FEW110 23/19 A3018 RMK AO2 SLP221 T02280194 10228
                 20206 53006 =
2014-08-01 06:54 METAR KSBY 011054Z 00000KT 7SM CLR 22/19 A3017 RMK AO2 SLP218 T02170189 =
2014-08-01 05:54 METAR KSBY 010954Z AUTO 00000KT 8SM FEW100 21/18 A3016 RMK AO2 SLP215 T02110183
                 TSNO =
2014-08-01 04:54 METAR KSBY 010854Z AUTO 00000KT 7SM CLR 21/18 A3016 RMK AO2 SLP215 T02110183
                 58005 =
2014-08-01 03:54 METAR KSBY 010754Z AUTO 00000KT 9SM CLR 22/19 A3017 RMK AO2 SLP219 T02170189 =
2014-08-01 02:54 METAR KSBY 010654Z AUTO 16003KT 10SM CLR 22/19 A3017 RMK AO2 SLP220 T02220189 =
2014-08-01 01:54 METAR KSBY 010554Z AUTO 16004KT 8SM CLR 22/19 A3017 RMK AO2 SLP220 T02170189
                 10261 20211 51006 =
2014-08-01 00:54 METAR KSBY 010454Z AUTO 16004KT 9SM CLR 22/19 A3017 RMK AO2 SLP219 T02170189
                 403110150 =
2014-07-31 23:54 METAR KSBY 010354Z AUTO 16004KT 10SM CLR 22/19 A3017 RMK AO2 SLP217 T02220189 =
2014-07-31 22:54 METAR KSBY 010254Z AUTO 17003KT 10SM CLR 23/19 A3016 =
2014-07-31 21:54 METAR KSBY 010154Z 17006KT 10SM CLR 23/19 A3015 RMK AO2 SLP213 T02330194 =
2014-07-31 20:54 METAR KSBY 010054Z 16004KT 10SM CLR 24/19 A3014 RMK AO2 SLP208 T02440194 =
2014-07-31 19:54 METAR KSBY 312354Z 16004KT 10SM CLR 26/19 A3013 =
2014-07-31 18:54 METAR KSBY 312254Z 17004KT 10SM CLR 28/18 A3012 RMK AO2 SLP202 T02780178 =

Support USWX by starting your Amazon purchase here.